Time;durP1;ratioP1;P1;durP2;ratioP2;P2;SDS_P1;SDS_P2;PMS_P1;PMS_P2;Temp;Humidity;BMP_temperature;BMP_pressure;BME280_temperature;BME280_humidity;BME280_pressure;Samples;Min_cycle;Max_cycle;Signal;HPM_P1;HPM_P2
2022/01/02 00:00:43;;;;;;;;;;;;;;;;;;5076031;28;20047;-83
2022/01/02 00:03:12;;;;;;;;;;;;;;;;;;5076360;28;19958;-83
2022/01/02 00:05:39;;;;;;;;;;;;;;;;;;5076245;28;20000;-83
2022/01/02 00:08:06;;;;;;;;;;;;;;;;;;5076029;28;20495;-83
2022/01/02 00:10:33;;;;;;;;;;;;;;;;;;5076067;28;20022;-83
2022/01/02 00:13:00;;;;;;;;;;;;;;;;;;5076035;28;19956;-83
2022/01/02 00:15:27;;;;;;;;;;;;;;;;;;5076036;28;19964;-83
2022/01/02 00:17:54;;;;;;;;;;;;;;;;;;5075829;28;20002;-83
2022/01/02 00:20:21;;;;;;;;;;;;;;;;;;5075999;28;20041;-82
2022/01/02 00:22:50;;;;;;;;;;;;;;;;;;5075718;28;20026;-83
2022/01/02 00:25:26;;;;;;;;;;;;;;;;;;5075660;28;19957;-83
2022/01/02 00:27:53;;;;;;;;;;;;;;;;;;5075874;28;20454;-83
2022/01/02 00:30:20;;;;;;;;;;;;;;;;;;5075798;28;20029;-83
2022/01/02 00:32:47;;;;;;;;;;;;;;;;;;5075988;28;20005;-83
2022/01/02 00:35:14;;;;;;;;;;;;;;;;;;5075674;28;20396;-83
2022/01/02 00:37:41;;;;;;;;;;;;;;;;;;5075631;28;20062;-83
2022/01/02 00:40:08;;;;;;;;;;;;;;;;;;5075298;28;19959;-83
2022/01/02 00:42:35;;;;;;;;;;;;;;;;;;5074658;28;20523;-83
2022/01/02 00:45:02;;;;;;;;;;;;;;;;;;5075539;28;20044;-83
2022/01/02 00:47:29;;;;;;;;;;;;;;;;;;5075372;28;19994;-83
2022/01/02 00:49:56;;;;;;;;;;;;;;;;;;5075160;28;20062;-83
2022/01/02 00:52:23;;;;;;;;;;;;;;;;;;5075152;28;20477;-82
2022/01/02 00:54:50;;;;;;;;;;;;;;;;;;5075251;28;20011;-83
2022/01/02 00:57:17;;;;;;;;;;;;;;;;;;5075506;28;20054;-83
2022/01/02 00:59:45;;;;;;;;;;;;;;;;;;5075170;28;19969;-83
2022/01/02 01:02:12;;;;;;;;;;;;;;;;;;5074906;28;19974;-82
2022/01/02 01:04:39;;;;;;;;;;;;;;;;;;5074922;28;20433;-83
2022/01/02 01:07:06;;;;;;;;;;;;;;;;;;5074980;28;20054;-83
2022/01/02 01:09:33;;;;;;;;;;;;;;;;;;5074820;28;20051;-83
2022/01/02 01:12:00;;;;;;;;;;;;;;;;;;5074962;28;20059;-83
2022/01/02 01:14:27;;;;;;;;;;;;;;;;;;5074599;28;20051;-83
2022/01/02 01:16:54;;;;;;;;;;;;;;;;;;5074859;28;20330;-83
2022/01/02 01:19:22;;;;;;;;;;;;;;;;;;5074735;28;19961;-83
2022/01/02 01:21:48;;;;;;;;;;;;;;;;;;5074516;28;19971;-82
2022/01/02 01:24:15;;;;;;;;;;;;;;;;;;5074789;28;20044;-83
2022/01/02 01:26:45;;;;;;;;;;;;;;;;;;5074818;28;20067;-82
2022/01/02 01:29:12;;;;;;;;;;;;;;;;;;5074543;28;20016;-83
2022/01/02 01:31:39;;;;;;;;;;;;;;;;;;5074555;28;20057;-83
2022/01/02 01:34:06;;;;;;;;;;;;;;;;;;5074470;28;20053;-83
2022/01/02 01:36:33;;;;;;;;;;;;;;;;;;5074361;28;20394;-83
2022/01/02 01:39:00;;;;;;;;;;;;;;;;;;5074411;28;20048;-83
2022/01/02 01:41:27;;;;;;;;;;;;;;;;;;5074277;28;19959;-83
2022/01/02 01:44:06;;;;;;;;;;;;;;;;;;5074332;28;20014;-83
2022/01/02 01:46:33;;;;;;;;;;;;;;;;;;5074129;28;20411;-83
2022/01/02 01:49:00;;;;;;;;;;;;;;;;;;5073705;28;20436;-83
2022/01/02 01:51:27;;;;;;;;;;;;;;;;;;5074635;28;20049;-85
2022/01/02 01:53:54;;;;;;;;;;;;;;;;;;5073879;28;20055;-82
2022/01/02 01:56:21;;;;;;;;;;;;;;;;;;5074096;28;20031;-83
2022/01/02 01:58:48;;;;;;;;;;;;;;;;;;5074059;28;20040;-83
2022/01/02 02:01:15;;;;;;;;;;;;;;;;;;5073872;28;20004;-83
2022/01/02 02:03:42;;;;;;;;;;;;;;;;;;5073789;28;19961;-83
2022/01/02 02:06:09;;;;;;;;;;;;;;;;;;5073854;28;20389;-83
2022/01/02 02:08:36;;;;;;;;;;;;;;;;;;5073919;28;20013;-83
2022/01/02 02:11:03;;;;;;;;;;;;;;;;;;5073804;28;19984;-82
2022/01/02 02:13:30;;;;;;;;;;;;;;;;;;5073741;28;19964;-83
2022/01/02 02:15:59;;;;;;;;;;;;;;;;;;5073648;28;20375;-83
2022/01/02 02:18:26;;;;;;;;;;;;;;;;;;5073896;28;19972;-83
2022/01/02 02:20:55;;;;;;;;;;;;;;;;;;5073868;28;20047;-83
2022/01/02 02:23:22;;;;;;;;;;;;;;;;;;5073517;28;20454;-83
2022/01/02 02:25:49;;;;;;;;;;;;;;;;;;5073648;28;20060;-82
2022/01/02 02:28:16;;;;;;;;;;;;;;;;;;5073684;28;20059;-82
2022/01/02 02:30:44;;;;;;;;;;;;;;;;;;5073470;28;20055;-82
2022/01/02 02:33:11;;;;;;;;;;;;;;;;;;5073442;28;20531;-82
2022/01/02 02:35:38;;;;;;;;;;;;;;;;;;5073614;28;20392;-82
2022/01/02 02:38:05;;;;;;;;;;;;;;;;;;5073611;28;20048;-82
2022/01/02 02:40:32;;;;;;;;;;;;;;;;;;5073501;28;19960;-82
2022/01/02 02:43:03;;;;;;;;;;;;;;;;;;5073370;28;20026;-82
2022/01/02 02:51:01;;;;;;;;;;;;;;;;;;5073461;28;19941;-83
2022/01/02 02:53:28;;;;;;;;;;;;;;;;;;5073267;28;19960;-82
2022/01/02 02:55:58;;;;;;;;;;;;;;;;;;5073270;28;20047;-82
2022/01/02 02:58:42;;;;;;;;;;;;;;;;;;5073436;28;20018;-82
2022/01/02 03:01:09;;;;;;;;;;;;;;;;;;5073470;28;19962;-82
2022/01/02 03:03:36;;;;;;;;;;;;;;;;;;5073210;28;20073;-82
2022/01/02 03:06:03;;;;;;;;;;;;;;;;;;5074284;28;20358;-82
2022/01/02 03:08:30;;;;;;;;;;;;;;;;;;5077343;28;20055;-82
2022/01/02 03:10:57;;;;;;;;;;;;;;;;;;5077087;28;19969;-82
2022/01/02 03:13:24;;;;;;;;;;;;;;;;;;5077197;28;19956;-82
2022/01/02 03:15:51;;;;;;;;;;;;;;;;;;5077088;28;19965;-82
2022/01/02 03:18:18;;;;;;;;;;;;;;;;;;5077053;28;20061;-82
2022/01/02 03:20:45;;;;;;;;;;;;;;;;;;5076843;28;20053;-82
2022/01/02 03:23:12;;;;;;;;;;;;;;;;;;5076820;28;20416;-82
2022/01/02 03:25:39;;;;;;;;;;;;;;;;;;5076949;28;20053;-82
2022/01/02 03:28:06;;;;;;;;;;;;;;;;;;5076766;28;20008;-82
2022/01/02 03:30:33;;;;;;;;;;;;;;;;;;5076784;28;19997;-82
2022/01/02 03:33:00;;;;;;;;;;;;;;;;;;5076771;28;20046;-82
2022/01/02 03:35:26;;;;;;;;;;;;;;;;;;5076572;28;20060;-82
2022/01/02 03:37:53;;;;;;;;;;;;;;;;;;5076579;28;19995;-82
2022/01/02 03:40:20;;;;;;;;;;;;;;;;;;5076698;28;20030;-82
2022/01/02 03:42:47;;;;;;;;;;;;;;;;;;5076500;28;20065;-82
2022/01/02 03:45:14;;;;;;;;;;;;;;;;;;5076563;28;20065;-82
2022/01/02 03:47:41;;;;;;;;;;;;;;;;;;5076348;28;20074;-82
2022/01/02 03:50:08;;;;;;;;;;;;;;;;;;5076315;28;20050;-82
2022/01/02 03:52:35;;;;;;;;;;;;;;;;;;5076360;28;20384;-82
2022/01/02 03:55:02;;;;;;;;;;;;;;;;;;5076402;28;20012;-82
2022/01/02 03:57:29;;;;;;;;;;;;;;;;;;5076290;28;20059;-82
2022/01/02 03:59:56;;;;;;;;;;;;;;;;;;5076217;28;20401;-82
2022/01/02 04:02:23;;;;;;;;;;;;;;;;;;5076104;28;20062;-82
2022/01/02 04:04:50;;;;;;;;;;;;;;;;;;5076388;28;20028;-83
2022/01/02 04:07:17;;;;;;;;;;;;;;;;;;5076560;28;19996;-82
2022/01/02 04:09:44;;;;;;;;;;;;;;;;;;5076060;28;20510;-83
2022/01/02 04:12:11;;;;;;;;;;;;;;;;;;5076096;28;20473;-82
2022/01/02 04:14:38;;;;;;;;;;;;;;;;;;5076051;28;19965;-82
2022/01/02 04:17:05;;;;;;;;;;;;;;;;;;5075316;28;19993;-82
2022/01/02 04:19:34;;;;;;;;;;;;;;;;;;5075029;28;20209;-82
2022/01/02 04:22:01;;;;;;;;;;;;;;;;;;5075816;28;20048;-82
2022/01/02 04:24:28;;;;;;;;;;;;;;;;;;5075705;28;20062;-83
2022/01/02 04:26:55;;;;;;;;;;;;;;;;;;5075685;28;20394;-82
2022/01/02 04:29:22;;;;;;;;;;;;;;;;;;5075670;28;20040;-82
2022/01/02 04:31:49;;;;;;;;;;;;;;;;;;5075536;28;19965;-82
2022/01/02 04:34:16;;;;;;;;;;;;;;;;;;5075722;28;20061;-82
2022/01/02 04:36:43;;;;;;;;;;;;;;;;;;5075602;28;20002;-82
2022/01/02 04:39:10;;;;;;;;;;;;;;;;;;5075563;28;20067;-82
2022/01/02 04:41:37;;;;;;;;;;;;;;;;;;5075423;28;20056;-83
2022/01/02 04:44:04;;;;;;;;;;;;;;;;;;5075344;28;20497;-82
2022/01/02 04:46:30;;;;;;;;;;;;;;;;;;5075541;28;20387;-82
2022/01/02 04:48:57;;;;;;;;;;;;;;;;;;5075170;28;20065;-83
2022/01/02 04:51:24;;;;;;;;;;;;;;;;;;5075338;28;20000;-82
2022/01/02 04:53:51;;;;;;;;;;;;;;;;;;5075132;28;20051;-82
2022/01/02 04:56:18;;;;;;;;;;;;;;;;;;5075155;28;19961;-82
2022/01/02 04:58:45;;;;;;;;;;;;;;;;;;5075037;28;19964;-82
2022/01/02 05:01:14;;;;;;;;;;;;;;;;;;5075020;28;20051;-83
2022/01/02 05:03:41;;;;;;;;;;;;;;;;;;5074927;28;20023;-82
2022/01/02 05:06:08;;;;;;;;;;;;;;;;;;5074966;28;20052;-82
2022/01/02 05:08:35;;;;;;;;;;;;;;;;;;5074911;28;20044;-82
2022/01/02 05:11:02;;;;;;;;;;;;;;;;;;5074572;28;20319;-82
2022/01/02 05:13:29;;;;;;;;;;;;;;;;;;5074857;28;20061;-82
2022/01/02 05:15:56;;;;;;;;;;;;;;;;;;5074717;28;20005;-82
2022/01/02 05:18:23;;;;;;;;;;;;;;;;;;5074515;28;20048;-83
2022/01/02 05:20:50;;;;;;;;;;;;;;;;;;5074573;28;20064;-82
2022/01/02 05:23:17;;;;;;;;;;;;;;;;;;5074587;28;20401;-82
2022/01/02 05:25:44;;;;;;;;;;;;;;;;;;5074444;28;20052;-82
2022/01/02 05:28:11;;;;;;;;;;;;;;;;;;5074693;28;20053;-82
2022/01/02 05:30:38;;;;;;;;;;;;;;;;;;5074375;28;20055;-82
2022/01/02 05:33:05;;;;;;;;;;;;;;;;;;5074868;28;19969;-82
2022/01/02 05:35:32;;;;;;;;;;;;;;;;;;5074242;28;20056;-83
2022/01/02 05:37:59;;;;;;;;;;;;;;;;;;5074188;28;20396;-82
2022/01/02 05:40:30;;;;;;;;;;;;;;;;;;5074152;28;20041;-83
2022/01/02 05:42:57;;;;;;;;;;;;;;;;;;5074263;28;19970;-82
2022/01/02 05:45:24;;;;;;;;;;;;;;;;;;5074241;28;20062;-82
2022/01/02 05:47:51;;;;;;;;;;;;;;;;;;5073889;28;20078;-82
2022/01/02 05:50:18;;;;;;;;;;;;;;;;;;5074011;28;20429;-82
2022/01/02 05:52:45;;;;;;;;;;;;;;;;;;5074012;28;19996;-82
2022/01/02 05:55:12;;;;;;;;;;;;;;;;;;5074274;28;20036;-82
2022/01/02 05:57:39;;;;;;;;;;;;;;;;;;5074003;28;20391;-82
2022/01/02 06:00:06;;;;;;;;;;;;;;;;;;5074134;28;20049;-82
2022/01/02 06:02:33;;;;;;;;;;;;;;;;;;5073897;28;20011;-82
2022/01/02 06:05:00;;;;;;;;;;;;;;;;;;5073635;28;20499;-83
2022/01/02 06:07:27;;;;;;;;;;;;;;;;;;5073722;28;20097;-83
2022/01/02 06:09:54;;;;;;;;;;;;;;;;;;5073729;28;20045;-82
2022/01/02 06:12:23;;;;;;;;;;;;;;;;;;5073829;28;20053;-83
2022/01/02 06:14:50;;;;;;;;;;;;;;;;;;5073843;28;19960;-83
2022/01/02 06:17:17;;;;;;;;;;;;;;;;;;5073846;28;20009;-82
2022/01/02 06:19:44;;;;;;;;;;;;;;;;;;5073777;28;20359;-82
2022/01/02 06:22:11;;;;;;;;;;;;;;;;;;5073797;28;20046;-83
2022/01/02 06:24:38;;;;;;;;;;;;;;;;;;5073679;28;20062;-82
2022/01/02 06:27:05;;;;;;;;;;;;;;;;;;5073791;28;19958;-83
2022/01/02 06:29:32;;;;;;;;;;;;;;;;;;5073528;28;19994;-83
2022/01/02 06:31:59;;;;;;;;;;;;;;;;;;5073421;28;19960;-82
2022/01/02 06:34:26;;;;;;;;;;;;;;;;;;5073325;28;20040;-82
2022/01/02 06:36:53;;;;;;;;;;;;;;;;;;5073515;28;19994;-82
2022/01/02 06:39:20;;;;;;;;;;;;;;;;;;5073380;28;20059;-83
2022/01/02 06:41:47;;;;;;;;;;;;;;;;;;5072714;28;20048;-83
2022/01/02 06:44:14;;;;;;;;;;;;;;;;;;5073274;28;20067;-83
2022/01/02 06:46:41;;;;;;;;;;;;;;;;;;5073476;28;20073;-83
2022/01/02 06:49:08;;;;;;;;;;;;;;;;;;5073163;28;20396;-82
2022/01/02 06:51:35;;;;;;;;;;;;;;;;;;5073553;28;20043;-83
2022/01/02 06:54:02;;;;;;;;;;;;;;;;;;5073366;28;20050;-83
2022/01/02 06:56:29;;;;;;;;;;;;;;;;;;5073181;28;19952;-83
2022/01/02 06:58:56;;;;;;;;;;;;;;;;;;5073103;28;20620;-82
2022/01/02 07:01:23;;;;;;;;;;;;;;;;;;5073224;28;20101;-81
2022/01/02 07:03:50;;;;;;;;;;;;;;;;;;5072952;28;19975;-82
2022/01/02 07:06:17;;;;;;;;;;;;;;;;;;5073387;28;20052;-82
2022/01/02 07:08:44;;;;;;;;;;;;;;;;;;5072976;28;20048;-83
2022/01/02 07:11:11;;;;;;;;;;;;;;;;;;5073012;28;20498;-83
2022/01/02 07:13:40;;;;;;;;;;;;;;;;;;5073328;28;19954;-83
2022/01/02 07:16:07;;;;;;;;;;;;;;;;;;5073003;28;20086;-82
2022/01/02 07:18:34;;;;;;;;;;;;;;;;;;5073081;28;20053;-83
2022/01/02 07:21:01;;;;;;;;;;;;;;;;;;5072998;28;20124;-83
2022/01/02 07:23:28;;;;;;;;;;;;;;;;;;5073155;28;20016;-83
2022/01/02 07:25:55;;;;;;;;;;;;;;;;;;5072961;28;20039;-82
2022/01/02 07:28:22;;;;;;;;;;;;;;;;;;5072838;28;20012;-82
2022/01/02 07:30:49;;;;;;;;;;;;;;;;;;5072983;28;20495;-82
2022/01/02 07:33:16;;;;;;;;;;;;;;;;;;5073239;28;20088;-83
2022/01/02 07:35:43;;;;;;;;;;;;;;;;;;5073111;28;20378;-82
2022/01/02 07:38:10;;;;;;;;;;;;;;;;;;5073012;28;20008;-82
2022/01/02 07:40:37;;;;;;;;;;;;;;;;;;5073002;28;20009;-83
2022/01/02 07:43:04;;;;;;;;;;;;;;;;;;5072654;28;20402;-82
2022/01/02 07:45:31;;;;;;;;;;;;;;;;;;5072944;28;20036;-83
2022/01/02 07:47:58;;;;;;;;;;;;;;;;;;5072771;28;19974;-83
2022/01/02 07:50:25;;;;;;;;;;;;;;;;;;5072962;28;20000;-83
2022/01/02 07:52:53;;;;;;;;;;;;;;;;;;5073545;28;20058;-83
2022/01/02 07:55:20;;;;;;;;;;;;;;;;;;5076287;28;19957;-83
2022/01/02 07:57:47;;;;;;;;;;;;;;;;;;5076109;28;20006;-83
2022/01/02 08:00:14;;;;;;;;;;;;;;;;;;5076362;28;20057;-83
2022/01/02 08:02:41;;;;;;;;;;;;;;;;;;5076164;28;20578;-83
2022/01/02 08:05:10;;;;;;;;;;;;;;;;;;5076084;28;20065;-82
2022/01/02 08:07:37;;;;;;;;;;;;;;;;;;5075959;28;19954;-83
2022/01/02 08:10:04;;;;;;;;;;;;;;;;;;5076006;28;19955;-83
2022/01/02 08:12:31;;;;;;;;;;;;;;;;;;5074919;28;20045;-83
2022/01/02 08:14:58;;;;;;;;;;;;;;;;;;5075915;28;20046;-83
2022/01/02 08:17:27;;;;;;;;;;;;;;;;;;5076105;28;20381;-83
2022/01/02 08:19:54;;;;;;;;;;;;;;;;;;5075849;28;19962;-83
2022/01/02 08:22:21;;;;;;;;;;;;;;;;;;5075857;28;20048;-83
2022/01/02 08:24:48;;;;;;;;;;;;;;;;;;5075728;28;19970;-83
2022/01/02 08:27:15;;;;;;;;;;;;;;;;;;5075702;28;20045;-83
2022/01/02 08:29:42;;;;;;;;;;;;;;;;;;5075570;28;20488;-83
2022/01/02 08:32:09;;;;;;;;;;;;;;;;;;5075837;28;20383;-83
2022/01/02 08:34:36;;;;;;;;;;;;;;;;;;5075534;28;20051;-83
2022/01/02 08:37:03;;;;;;;;;;;;;;;;;;5075579;28;20054;-83
2022/01/02 08:39:30;;;;;;;;;;;;;;;;;;5075219;28;20058;-82
2022/01/02 08:41:57;;;;;;;;;;;;;;;;;;5075522;28;20363;-83
2022/01/02 08:44:24;;;;;;;;;;;;;;;;;;5075366;28;20026;-83
2022/01/02 08:46:51;;;;;;;;;;;;;;;;;;5075411;28;20392;-84
2022/01/02 08:49:18;;;;;;;;;;;;;;;;;;5075171;28;19981;-84
2022/01/02 08:51:45;;;;;;;;;;;;;;;;;;5075541;28;20326;-83
2022/01/02 08:54:12;;;;;;;;;;;;;;;;;;5075228;28;20027;-83
2022/01/02 08:56:39;;;;;;;;;;;;;;;;;;5075019;28;20067;-83
2022/01/02 08:59:06;;;;;;;;;;;;;;;;;;5075042;28;20405;-83
2022/01/02 09:01:33;;;;;;;;;;;;;;;;;;5075089;28;20057;-83
2022/01/02 09:04:00;;;;;;;;;;;;;;;;;;5074507;28;19981;-83
2022/01/02 09:06:27;;;;;;;;;;;;;;;;;;5074833;28;20044;-82
2022/01/02 09:08:55;;;;;;;;;;;;;;;;;;5075278;28;20044;-83
2022/01/02 09:11:22;;;;;;;;;;;;;;;;;;5074933;28;19961;-83
2022/01/02 09:13:49;;;;;;;;;;;;;;;;;;5074646;28;20003;-81
2022/01/02 09:16:16;;;;;;;;;;;;;;;;;;5074781;28;20041;-82
2022/01/02 09:18:43;;;;;;;;;;;;;;;;;;5074805;28;20049;-82
2022/01/02 09:21:10;;;;;;;;;;;;;;;;;;5074719;28;20048;-82
2022/01/02 09:23:37;;;;;;;;;;;;;;;;;;5074696;28;20065;-83
2022/01/02 09:26:04;;;;;;;;;;;;;;;;;;5074683;28;20000;-82
2022/01/02 09:28:31;;;;;;;;;;;;;;;;;;5074486;28;20051;-82
2022/01/02 09:30:58;;;;;;;;;;;;;;;;;;5074267;28;20059;-81
2022/01/02 09:33:25;;;;;;;;;;;;;;;;;;5074424;28;20013;-82
2022/01/02 09:35:51;;;;;;;;;;;;;;;;;;5074178;28;20026;-83
2022/01/02 09:38:19;;;;;;;;;;;;;;;;;;5074474;28;20045;-82
2022/01/02 09:40:46;;;;;;;;;;;;;;;;;;5074340;28;19949;-82
2022/01/02 09:43:12;;;;;;;;;;;;;;;;;;5074342;28;20060;-82
2022/01/02 09:45:41;;;;;;;;;;;;;;;;;;5074132;28;20080;-82
2022/01/02 09:48:08;;;;;;;;;;;;;;;;;;5073900;28;19986;-81
2022/01/02 09:50:35;;;;;;;;;;;;;;;;;;5074048;28;20491;-82
2022/01/02 09:53:02;;;;;;;;;;;;;;;;;;5074395;28;19963;-82
2022/01/02 09:55:29;;;;;;;;;;;;;;;;;;5074159;28;20042;-81
2022/01/02 09:57:59;;;;;;;;;;;;;;;;;;5073976;28;20048;-82
2022/01/02 10:00:26;;;;;;;;;;;;;;;;;;5074218;28;20420;-82
2022/01/02 10:02:53;;;;;;;;;;;;;;;;;;5073858;28;20378;-82
2022/01/02 10:05:21;;;;;;;;;;;;;;;;;;5074029;28;20453;-81
2022/01/02 10:07:48;;;;;;;;;;;;;;;;;;5074055;28;19962;-81
2022/01/02 10:10:15;;;;;;;;;;;;;;;;;;5073747;28;20050;-81
2022/01/02 10:12:42;;;;;;;;;;;;;;;;;;5073797;28;20403;-82
2022/01/02 10:15:09;;;;;;;;;;;;;;;;;;5073120;28;19994;-81
2022/01/02 10:17:36;;;;;;;;;;;;;;;;;;5073641;28;20048;-82
2022/01/02 10:20:03;;;;;;;;;;;;;;;;;;5073752;28;20038;-82
2022/01/02 10:22:30;;;;;;;;;;;;;;;;;;5073378;28;20038;-81
2022/01/02 10:24:57;;;;;;;;;;;;;;;;;;5073548;28;19971;-82
2022/01/02 10:27:26;;;;;;;;;;;;;;;;;;5073540;28;20085;-81
2022/01/02 10:29:54;;;;;;;;;;;;;;;;;;5073585;28;19967;-83
2022/01/02 10:32:21;;;;;;;;;;;;;;;;;;5073873;28;19965;-81
2022/01/02 10:34:48;;;;;;;;;;;;;;;;;;5073748;28;20012;-82
2022/01/02 10:37:15;;;;;;;;;;;;;;;;;;5073496;28;20007;-82
2022/01/02 10:39:42;;;;;;;;;;;;;;;;;;5073531;28;20047;-82
2022/01/02 10:42:09;;;;;;;;;;;;;;;;;;5073387;28;19963;-82
2022/01/02 10:44:36;;;;;;;;;;;;;;;;;;5073234;28;20066;-82
2022/01/02 10:47:03;;;;;;;;;;;;;;;;;;5073359;28;20399;-83
2022/01/02 10:49:30;;;;;;;;;;;;;;;;;;5073238;28;20044;-83
2022/01/02 10:51:57;;;;;;;;;;;;;;;;;;5073391;28;20045;-83
2022/01/02 10:54:24;;;;;;;;;;;;;;;;;;5073469;28;20053;-83
2022/01/02 10:56:51;;;;;;;;;;;;;;;;;;5073321;28;20060;-83
2022/01/02 10:59:18;;;;;;;;;;;;;;;;;;5073271;28;20408;-83
2022/01/02 11:01:44;;;;;;;;;;;;;;;;;;5073514;28;20077;-82
2022/01/02 11:04:11;;;;;;;;;;;;;;;;;;5073295;28;19978;-81
2022/01/02 11:06:38;;;;;;;;;;;;;;;;;;5073318;28;20051;-82
2022/01/02 11:09:06;;;;;;;;;;;;;;;;;;5073220;28;20050;-82
2022/01/02 11:11:33;;;;;;;;;;;;;;;;;;5073138;28;19963;-82
2022/01/02 11:14:00;;;;;;;;;;;;;;;;;;5073442;28;20066;-82
2022/01/02 11:16:27;;;;;;;;;;;;;;;;;;5073318;28;20070;-83
2022/01/02 11:18:54;;;;;;;;;;;;;;;;;;5072977;28;20012;-82
2022/01/02 11:21:21;;;;;;;;;;;;;;;;;;5072984;28;20507;-82
2022/01/02 11:23:48;;;;;;;;;;;;;;;;;;5073148;28;20057;-82
2022/01/02 11:26:15;;;;;;;;;;;;;;;;;;5073167;28;20038;-82
2022/01/02 11:28:42;;;;;;;;;;;;;;;;;;5076764;28;20017;-82
2022/01/02 11:31:09;;;;;;;;;;;;;;;;;;5076952;28;20435;-83
2022/01/02 11:33:36;;;;;;;;;;;;;;;;;;5076675;28;19960;-83
2022/01/02 11:36:03;;;;;;;;;;;;;;;;;;5076649;28;20429;-82
2022/01/02 11:38:30;;;;;;;;;;;;;;;;;;5076579;28;20039;-82
2022/01/02 11:40:57;;;;;;;;;;;;;;;;;;5076488;28;20057;-83
2022/01/02 11:43:24;;;;;;;;;;;;;;;;;;5076839;28;20042;-83
2022/01/02 11:45:51;;;;;;;;;;;;;;;;;;5076607;28;19981;-82
2022/01/02 11:48:18;;;;;;;;;;;;;;;;;;5076590;28;20403;-81
2022/01/02 11:50:45;;;;;;;;;;;;;;;;;;5076577;28;20053;-83
2022/01/02 11:53:12;;;;;;;;;;;;;;;;;;5076347;28;20049;-83
2022/01/02 11:55:39;;;;;;;;;;;;;;;;;;5076529;28;20051;-83
2022/01/02 11:58:06;;;;;;;;;;;;;;;;;;5076613;28;20472;-83
2022/01/02 12:00:33;;;;;;;;;;;;;;;;;;5076864;28;20057;-83
2022/01/02 12:03:00;;;;;;;;;;;;;;;;;;5076211;28;20058;-83
2022/01/02 12:05:27;;;;;;;;;;;;;;;;;;5076109;28;20416;-83
2022/01/02 12:07:54;;;;;;;;;;;;;;;;;;5076200;28;20050;-83
2022/01/02 12:10:22;;;;;;;;;;;;;;;;;;5076401;28;20066;-84
2022/01/02 12:12:49;;;;;;;;;;;;;;;;;;5076181;28;19969;-83
2022/01/02 12:15:17;;;;;;;;;;;;;;;;;;5075984;28;20051;-83
2022/01/02 12:17:44;;;;;;;;;;;;;;;;;;5075974;28;19970;-84
2022/01/02 12:20:11;;;;;;;;;;;;;;;;;;5075920;28;19966;-84
2022/01/02 12:22:38;;;;;;;;;;;;;;;;;;5076105;28;20060;-83
2022/01/02 12:25:05;;;;;;;;;;;;;;;;;;5076044;28;20070;-83
2022/01/02 12:27:32;;;;;;;;;;;;;;;;;;5075868;28;20060;-84
2022/01/02 12:30:01;;;;;;;;;;;;;;;;;;5075715;28;20057;-84
2022/01/02 12:32:28;;;;;;;;;;;;;;;;;;5075878;28;19969;-84
2022/01/02 12:34:55;;;;;;;;;;;;;;;;;;5075960;28;20035;-84
2022/01/02 12:37:22;;;;;;;;;;;;;;;;;;5075794;28;20026;-83
2022/01/02 12:39:50;;;;;;;;;;;;;;;;;;5074860;28;20048;-84
2022/01/02 12:42:17;;;;;;;;;;;;;;;;;;5075483;28;19966;-84
2022/01/02 12:44:44;;;;;;;;;;;;;;;;;;5075527;28;19977;-84
2022/01/02 12:47:12;;;;;;;;;;;;;;;;;;5075501;28;20019;-83
2022/01/02 12:49:39;;;;;;;;;;;;;;;;;;5075564;28;19983;-84
2022/01/02 12:52:06;;;;;;;;;;;;;;;;;;5075893;28;19968;-84
2022/01/02 12:54:33;;;;;;;;;;;;;;;;;;5075354;28;20062;-84
2022/01/02 12:57:00;;;;;;;;;;;;;;;;;;5075118;28;20012;-83
2022/01/02 12:59:27;;;;;;;;;;;;;;;;;;5075331;28;20062;-84
2022/01/02 13:01:54;;;;;;;;;;;;;;;;;;5075436;28;20393;-83
2022/01/02 13:04:23;;;;;;;;;;;;;;;;;;5075416;28;20013;-83
2022/01/02 13:06:50;;;;;;;;;;;;;;;;;;5075181;28;19967;-83
2022/01/02 13:09:17;;;;;;;;;;;;;;;;;;5075156;28;19972;-82
2022/01/02 13:11:44;;;;;;;;;;;;;;;;;;5074774;28;20022;-83
2022/01/02 13:14:11;;;;;;;;;;;;;;;;;;5074625;28;20013;-83
2022/01/02 13:16:38;;;;;;;;;;;;;;;;;;5074821;28;20057;-83
2022/01/02 13:19:05;;;;;;;;;;;;;;;;;;5074484;28;20400;-82
2022/01/02 13:21:31;;;;;;;;;;;;;;;;;;5074958;28;20049;-83
2022/01/02 13:23:59;;;;;;;;;;;;;;;;;;5074509;28;20047;-84
2022/01/02 13:26:26;;;;;;;;;;;;;;;;;;5074340;28;20409;-83
2022/01/02 13:28:53;;;;;;;;;;;;;;;;;;5074169;28;19954;-83
2022/01/02 13:31:20;;;;;;;;;;;;;;;;;;5074944;28;19959;-83
2022/01/02 13:33:47;;;;;;;;;;;;;;;;;;5074281;28;19964;-83
2022/01/02 13:36:14;;;;;;;;;;;;;;;;;;5074362;28;19966;-83
2022/01/02 13:38:41;;;;;;;;;;;;;;;;;;5074255;28;20029;-84
2022/01/02 13:41:08;;;;;;;;;;;;;;;;;;5074318;28;20049;-83
2022/01/02 13:43:35;;;;;;;;;;;;;;;;;;5073844;28;20059;-83
2022/01/02 13:46:02;;;;;;;;;;;;;;;;;;5074071;28;20418;-83
2022/01/02 13:48:29;;;;;;;;;;;;;;;;;;5073733;28;20109;-83
2022/01/02 13:50:58;;;;;;;;;;;;;;;;;;5074001;28;19964;-83
2022/01/02 13:53:25;;;;;;;;;;;;;;;;;;5074004;28;20020;-83
2022/01/02 13:55:52;;;;;;;;;;;;;;;;;;5073742;28;20023;-84
2022/01/02 13:58:19;;;;;;;;;;;;;;;;;;5073976;28;20004;-85
2022/01/02 14:00:46;;;;;;;;;;;;;;;;;;5074033;28;20003;-82
2022/01/02 14:03:14;;;;;;;;;;;;;;;;;;5074335;28;19958;-82
2022/01/02 14:05:41;;;;;;;;;;;;;;;;;;5073629;28;20031;-82
2022/01/02 14:08:11;;;;;;;;;;;;;;;;;;5073736;28;19965;-82
2022/01/02 14:10:38;;;;;;;;;;;;;;;;;;5073874;28;20050;-83
2022/01/02 14:13:11;;;;;;;;;;;;;;;;;;5073962;28;20049;-82
2022/01/02 14:15:38;;;;;;;;;;;;;;;;;;5073733;28;19978;-82
2022/01/02 14:18:05;;;;;;;;;;;;;;;;;;5073560;28;20414;-81
2022/01/02 14:20:35;;;;;;;;;;;;;;;;;;5073700;28;20053;-82
2022/01/02 14:23:04;;;;;;;;;;;;;;;;;;5073473;28;20443;-82
2022/01/02 14:25:31;;;;;;;;;;;;;;;;;;5073580;28;19979;-82
2022/01/02 14:27:58;;;;;;;;;;;;;;;;;;5073521;28;20062;-82
2022/01/02 14:30:25;;;;;;;;;;;;;;;;;;5073413;28;20053;-81
2022/01/02 14:32:52;;;;;;;;;;;;;;;;;;5073422;28;20007;-81
2022/01/02 14:35:19;;;;;;;;;;;;;;;;;;5073436;28;20021;-82
2022/01/02 14:37:47;;;;;;;;;;;;;;;;;;5073291;28;20012;-82
2022/01/02 14:40:14;;;;;;;;;;;;;;;;;;5073478;28;19961;-82
2022/01/02 14:42:41;;;;;;;;;;;;;;;;;;5073442;28;20047;-82
2022/01/02 14:45:08;;;;;;;;;;;;;;;;;;5073492;28;20028;-82
2022/01/02 14:47:35;;;;;;;;;;;;;;;;;;5073216;28;20046;-82
2022/01/02 14:50:03;;;;;;;;;;;;;;;;;;5073356;28;20044;-82
2022/01/02 14:52:30;;;;;;;;;;;;;;;;;;5073572;28;20049;-82
2022/01/02 14:54:57;;;;;;;;;;;;;;;;;;5073345;28;19957;-82
2022/01/02 14:57:24;;;;;;;;;;;;;;;;;;5073657;28;19956;-82
2022/01/02 14:59:51;;;;;;;;;;;;;;;;;;5073226;28;20060;-82
2022/01/02 15:02:18;;;;;;;;;;;;;;;;;;5074880;28;20399;-81
2022/01/02 15:04:45;;;;;;;;;;;;;;;;;;5077035;28;20033;-81
2022/01/02 15:07:12;;;;;;;;;;;;;;;;;;5077273;28;20067;-82
2022/01/02 15:09:39;;;;;;;;;;;;;;;;;;5077335;28;20058;-82
2022/01/02 15:12:06;;;;;;;;;;;;;;;;;;5076992;28;20053;-82
2022/01/02 15:14:33;;;;;;;;;;;;;;;;;;5077094;28;19955;-82
2022/01/02 15:17:00;;;;;;;;;;;;;;;;;;5077151;28;19962;-82
2022/01/02 15:19:27;;;;;;;;;;;;;;;;;;5077313;28;19992;-82
2022/01/02 15:21:55;;;;;;;;;;;;;;;;;;5076957;28;20052;-82
2022/01/02 15:24:22;;;;;;;;;;;;;;;;;;5076961;28;19984;-82
2022/01/02 15:26:49;;;;;;;;;;;;;;;;;;5076783;28;19979;-83
2022/01/02 15:29:16;;;;;;;;;;;;;;;;;;5076993;28;20007;-83
2022/01/02 15:31:43;;;;;;;;;;;;;;;;;;5076829;28;20052;-81
2022/01/02 15:34:10;;;;;;;;;;;;;;;;;;5076632;28;20061;-81
2022/01/02 15:36:37;;;;;;;;;;;;;;;;;;5076463;28;20375;-81
2022/01/02 15:39:04;;;;;;;;;;;;;;;;;;5076719;28;20038;-82
2022/01/02 15:41:31;;;;;;;;;;;;;;;;;;5076630;28;20002;-82
2022/01/02 15:43:58;;;;;;;;;;;;;;;;;;5076504;28;20394;-80
2022/01/02 15:46:25;;;;;;;;;;;;;;;;;;5076053;28;20064;-80
2022/01/02 15:48:52;;;;;;;;;;;;;;;;;;5076047;28;20070;-82
2022/01/02 15:51:19;;;;;;;;;;;;;;;;;;5076340;28;20058;-82
2022/01/02 15:53:46;;;;;;;;;;;;;;;;;;5076537;28;20050;-82
2022/01/02 15:56:13;;;;;;;;;;;;;;;;;;5076315;28;20348;-81
2022/01/02 15:58:40;;;;;;;;;;;;;;;;;;5076196;28;20046;-81
2022/01/02 16:01:07;;;;;;;;;;;;;;;;;;5076100;28;19960;-81
2022/01/02 16:03:34;;;;;;;;;;;;;;;;;;5076274;28;20037;-82
2022/01/02 16:06:01;;;;;;;;;;;;;;;;;;5075917;28;20021;-82
2022/01/02 16:08:29;;;;;;;;;;;;;;;;;;5076470;28;20403;-81
2022/01/02 16:10:56;;;;;;;;;;;;;;;;;;5076200;28;20422;-82
2022/01/02 16:13:23;;;;;;;;;;;;;;;;;;5074956;28;19965;-82
2022/01/02 16:15:50;;;;;;;;;;;;;;;;;;5076280;28;19958;-82
2022/01/02 16:18:17;;;;;;;;;;;;;;;;;;5075593;28;20025;-83
2022/01/02 16:20:45;;;;;;;;;;;;;;;;;;5076059;28;20063;-82
2022/01/02 16:23:12;;;;;;;;;;;;;;;;;;5075754;28;19960;-82
2022/01/02 16:25:39;;;;;;;;;;;;;;;;;;5075769;28;20076;-82
2022/01/02 16:28:06;;;;;;;;;;;;;;;;;;5075561;28;19971;-82
2022/01/02 16:30:33;;;;;;;;;;;;;;;;;;5076202;28;19962;-83
2022/01/02 16:33:00;;;;;;;;;;;;;;;;;;5075947;28;20066;-82
2022/01/02 16:35:27;;;;;;;;;;;;;;;;;;5075674;28;19996;-84
2022/01/02 16:37:54;;;;;;;;;;;;;;;;;;5075695;28;20057;-84
2022/01/02 16:40:25;;;;;;;;;;;;;;;;;;5075480;28;20054;-83
2022/01/02 16:42:51;;;;;;;;;;;;;;;;;;5075396;28;20016;-84
2022/01/02 16:45:19;;;;;;;;;;;;;;;;;;5075436;28;19971;-84
2022/01/02 16:47:46;;;;;;;;;;;;;;;;;;5075229;28;19990;-83
2022/01/02 16:50:13;;;;;;;;;;;;;;;;;;5075541;28;20057;-83